createdAt,value
2023-05-15T00:02:01.953Z,8.60
2023-05-15T00:04:28.661Z,8.60
2023-05-15T00:06:55.382Z,8.60
2023-05-15T00:09:22.033Z,8.60
2023-05-15T00:11:48.699Z,8.50
2023-05-15T00:14:15.304Z,8.60
2023-05-15T00:16:41.997Z,8.50
2023-05-15T00:19:08.935Z,8.50
2023-05-15T00:21:35.677Z,8.50
2023-05-15T00:24:02.295Z,8.40
2023-05-15T00:26:29.010Z,8.30
2023-05-15T00:29:14.358Z,8.40
2023-05-15T00:31:40.997Z,8.40
2023-05-15T00:34:07.637Z,8.30
2023-05-15T00:36:34.271Z,8.30
2023-05-15T00:39:00.968Z,8.40
2023-05-15T00:41:31.954Z,8.40
2023-05-15T00:44:00.588Z,8.30
2023-05-15T00:46:29.747Z,8.30
2023-05-15T00:48:57.604Z,8.40
2023-05-15T00:51:25.990Z,8.30
2023-05-15T00:53:53.354Z,8.20
2023-05-15T00:56:21.547Z,8.20
2023-05-15T00:58:49.587Z,8.20
2023-05-15T01:01:18.273Z,8.20
2023-05-15T01:03:45.572Z,8.10
2023-05-15T01:06:12.561Z,8.10
2023-05-15T01:08:50.293Z,8.10
2023-05-15T01:11:17.818Z,8.20
2023-05-15T01:13:45.873Z,8.30
2023-05-15T01:16:12.520Z,8.20
2023-05-15T01:18:39.319Z,8.00
2023-05-15T01:21:06.143Z,7.90
2023-05-15T01:23:51.111Z,7.80
2023-05-15T01:26:56.189Z,7.80
2023-05-15T01:29:36.616Z,7.80
2023-05-15T01:32:08.320Z,7.80
2023-05-15T01:34:51.940Z,7.70
2023-05-15T01:37:24.472Z,7.70
2023-05-15T01:39:55.645Z,7.70
2023-05-15T01:42:27.386Z,7.70
2023-05-15T01:44:55.766Z,7.70
2023-05-15T01:47:27.829Z,7.80
2023-05-15T01:49:57.304Z,7.70
2023-05-15T01:52:32.411Z,7.70
2023-05-15T01:55:01.938Z,7.70
2023-05-15T01:57:30.989Z,7.60
2023-05-15T01:59:58.812Z,7.60
2023-05-15T02:02:27.472Z,7.70
2023-05-15T02:04:56.788Z,7.70
2023-05-15T02:07:24.682Z,7.80
2023-05-15T02:09:55.330Z,7.90
2023-05-15T02:12:22.846Z,7.90
2023-05-15T02:14:51.497Z,7.80
2023-05-15T02:17:22.138Z,7.70
2023-05-15T02:19:50.115Z,7.60
2023-05-15T02:22:16.729Z,7.60
2023-05-15T02:24:43.334Z,7.60
2023-05-15T02:27:27.250Z,7.60
2023-05-15T02:30:05.929Z,7.50
2023-05-15T02:32:43.567Z,7.50
2023-05-15T02:35:31.589Z,7.50
2023-05-15T02:38:06.574Z,7.40
2023-05-15T02:40:36.260Z,7.40
2023-05-15T02:43:07.416Z,7.30
2023-05-15T02:45:35.154Z,7.40
2023-05-15T02:48:03.785Z,7.40
2023-05-15T02:50:30.919Z,7.30
2023-05-15T02:53:07.559Z,7.30
2023-05-15T02:55:34.766Z,7.20
2023-05-15T02:58:02.235Z,7.20
2023-05-15T03:00:29.096Z,7.20
2023-05-15T03:02:55.755Z,7.20
2023-05-15T03:05:22.393Z,7.20
2023-05-15T03:07:49.000Z,7.20
2023-05-15T03:10:15.798Z,7.10
2023-05-15T03:12:42.435Z,7.20
2023-05-15T03:15:09.259Z,7.10
2023-05-15T03:17:35.935Z,7.10
2023-05-15T03:20:02.580Z,7.10
2023-05-15T03:22:29.256Z,7.00
2023-05-15T03:24:55.982Z,7.00
2023-05-15T03:27:22.685Z,6.90
2023-05-15T03:29:50.893Z,6.90
2023-05-15T03:32:18.031Z,7.00
2023-05-15T03:34:44.721Z,7.00
2023-05-15T03:37:11.410Z,7.10
2023-05-15T03:39:38.050Z,7.20
2023-05-15T03:42:04.946Z,7.10
2023-05-15T03:44:31.570Z,7.10
2023-05-15T03:46:58.205Z,7.10
2023-05-15T03:49:24.813Z,7.30
2023-05-15T03:51:51.434Z,7.20
2023-05-15T03:54:18.173Z,7.20
2023-05-15T03:56:44.866Z,7.20
2023-05-15T03:59:11.473Z,7.30
2023-05-15T04:01:50.392Z,7.20
2023-05-15T04:04:22.291Z,7.20
2023-05-15T04:06:49.717Z,7.20
2023-05-15T04:09:16.324Z,7.30
2023-05-15T04:11:42.939Z,7.30
2023-05-15T04:14:09.505Z,7.30
2023-05-15T04:16:36.132Z,7.40
2023-05-15T04:19:02.761Z,7.40
2023-05-15T04:21:29.365Z,7.30
2023-05-15T04:23:55.964Z,7.30
2023-05-15T04:26:22.705Z,7.30
2023-05-15T04:29:02.979Z,7.30
2023-05-15T04:31:31.572Z,7.40
2023-05-15T04:33:58.368Z,7.50
2023-05-15T04:36:25.039Z,7.60
2023-05-15T04:38:51.757Z,7.70
2023-05-15T04:41:18.618Z,7.80
2023-05-15T04:43:45.866Z,7.80
2023-05-15T04:46:12.677Z,7.90
2023-05-15T04:48:39.374Z,7.90
2023-05-15T04:51:06.003Z,8.00
2023-05-15T04:53:32.619Z,8.10
2023-05-15T04:55:59.237Z,8.20
2023-05-15T04:58:25.858Z,8.40
2023-05-15T05:00:52.537Z,8.60
2023-05-15T05:03:19.277Z,8.60
2023-05-15T05:05:45.969Z,8.80
2023-05-15T05:08:12.565Z,8.90
2023-05-15T05:10:39.153Z,9.10
2023-05-15T05:13:05.778Z,9.30
2023-05-15T05:15:32.362Z,9.40
2023-05-15T05:17:59.088Z,9.50
2023-05-15T05:20:25.726Z,9.60
2023-05-15T05:22:52.409Z,9.70
2023-05-15T05:25:19.129Z,9.90
2023-05-15T05:27:45.859Z,10.00
2023-05-15T05:30:12.794Z,10.10
2023-05-15T05:32:39.484Z,10.20
2023-05-15T05:35:06.344Z,10.30
2023-05-15T05:37:32.956Z,10.40
2023-05-15T05:39:59.594Z,10.50
2023-05-15T05:42:26.865Z,10.60
2023-05-15T05:44:53.523Z,10.80
2023-05-15T05:47:20.393Z,10.90
2023-05-15T05:49:48.083Z,10.90
2023-05-15T05:52:15.922Z,11.00
2023-05-15T05:54:42.871Z,11.10
2023-05-15T05:57:09.747Z,11.10
2023-05-15T05:59:37.241Z,11.20
2023-05-15T06:02:04.654Z,11.30
2023-05-15T06:04:33.461Z,11.40
2023-05-15T06:07:00.141Z,11.40
2023-05-15T06:09:27.110Z,11.50
2023-05-15T06:11:53.907Z,11.50
2023-05-15T06:14:21.294Z,11.60
2023-05-15T06:16:48.074Z,11.60
2023-05-15T06:19:14.946Z,11.70
2023-05-15T06:21:41.624Z,11.80
2023-05-15T06:24:08.343Z,11.90
2023-05-15T06:26:34.989Z,12.00
2023-05-15T06:29:01.740Z,12.10
2023-05-15T06:31:28.449Z,12.10
2023-05-15T06:33:55.270Z,12.20
2023-05-15T06:36:21.994Z,12.30
2023-05-15T06:38:48.576Z,12.50
2023-05-15T06:41:15.196Z,12.60
2023-05-15T06:43:41.766Z,12.80
2023-05-15T06:46:08.413Z,12.90
2023-05-15T06:48:36.538Z,13.00
2023-05-15T06:51:03.341Z,13.10
2023-05-15T06:53:30.675Z,13.20
2023-05-15T06:55:57.295Z,13.40
2023-05-15T06:58:24.281Z,13.60
2023-05-15T07:00:51.597Z,13.70
2023-05-15T07:03:19.624Z,13.70
2023-05-15T07:05:46.850Z,13.80
2023-05-15T07:08:13.630Z,13.90
2023-05-15T07:10:40.230Z,14.00
2023-05-15T07:13:06.829Z,14.10
2023-05-15T07:15:33.486Z,14.20
2023-05-15T07:18:00.221Z,14.30
2023-05-15T07:20:30.290Z,14.50
2023-05-15T07:22:59.036Z,14.50
2023-05-15T07:25:26.226Z,14.70
2023-05-15T07:27:53.066Z,14.80
2023-05-15T07:30:19.869Z,14.90
2023-05-15T07:32:46.732Z,15.00
2023-05-15T07:35:13.456Z,15.00
2023-05-15T07:37:40.870Z,15.10
2023-05-15T07:40:08.019Z,15.20
2023-05-15T07:42:34.712Z,15.20
2023-05-15T07:45:01.453Z,15.40
2023-05-15T07:47:28.187Z,15.50
2023-05-15T07:49:54.819Z,15.60
2023-05-15T07:52:21.485Z,15.70
2023-05-15T07:54:48.081Z,15.70
2023-05-15T07:57:15.473Z,15.80
2023-05-15T07:59:42.092Z,15.90
2023-05-15T08:02:08.690Z,16.00
2023-05-15T08:04:35.421Z,16.00
2023-05-15T08:07:02.239Z,16.10
2023-05-15T08:09:28.934Z,16.10
2023-05-15T08:12:17.466Z,16.30
2023-05-15T08:14:44.237Z,16.30
2023-05-15T08:17:11.005Z,16.40
2023-05-15T08:19:37.580Z,16.50
2023-05-15T08:22:04.367Z,16.50
2023-05-15T08:24:30.978Z,16.60
2023-05-15T08:26:57.549Z,16.80
2023-05-15T08:29:24.162Z,16.70
2023-05-15T08:31:50.841Z,16.80
2023-05-15T08:34:17.482Z,16.90
2023-05-15T08:36:44.670Z,17.00
2023-05-15T08:39:11.326Z,17.20
2023-05-15T08:41:45.468Z,17.30
2023-05-15T08:44:13.020Z,17.30
2023-05-15T08:46:40.111Z,17.40
2023-05-15T08:49:17.030Z,17.60
2023-05-15T08:51:43.765Z,17.70
2023-05-15T08:54:11.522Z,17.80
2023-05-15T08:56:38.314Z,18.00
2023-05-15T08:59:05.658Z,18.10
2023-05-15T09:01:33.647Z,18.20
2023-05-15T09:04:00.370Z,18.30
2023-05-15T09:06:28.106Z,18.50
2023-05-15T09:08:56.300Z,18.50
2023-05-15T09:11:25.272Z,18.80
2023-05-15T09:13:51.946Z,18.90
2023-05-15T09:16:21.000Z,19.20
2023-05-15T09:18:49.731Z,19.20
2023-05-15T09:21:27.869Z,19.10
2023-05-15T09:24:21.088Z,19.40
2023-05-15T09:27:01.761Z,19.80
2023-05-15T09:29:29.811Z,19.70
2023-05-15T09:31:56.559Z,19.60
2023-05-15T09:34:31.216Z,19.80
2023-05-15T09:36:58.382Z,20.10
2023-05-15T09:39:25.128Z,20.70
2023-05-15T09:41:52.606Z,21.00
2023-05-15T09:44:26.458Z,20.70
2023-05-15T09:46:53.396Z,20.80
2023-05-15T09:49:20.198Z,20.60
2023-05-15T09:51:48.552Z,20.60
2023-05-15T09:54:18.701Z,20.50
2023-05-15T09:56:46.799Z,20.80
2023-05-15T09:59:18.702Z,20.90
2023-05-15T10:01:46.346Z,20.60
2023-05-15T10:04:13.697Z,19.70
2023-05-15T10:06:46.350Z,19.00
2023-05-15T10:09:16.962Z,18.60
2023-05-15T10:11:49.979Z,18.60
2023-05-15T10:14:18.343Z,19.20
2023-05-15T10:16:45.563Z,19.60
2023-05-15T10:19:13.360Z,19.70
2023-05-15T10:21:41.632Z,20.00
2023-05-15T10:24:10.618Z,19.70
2023-05-15T10:26:39.168Z,19.80
2023-05-15T10:29:09.477Z,20.20
2023-05-15T10:31:36.544Z,20.90
2023-05-15T10:34:04.831Z,20.90
2023-05-15T10:36:36.436Z,21.10
2023-05-15T10:39:05.999Z,21.20
2023-05-15T10:41:42.679Z,21.00
2023-05-15T10:44:10.948Z,20.80
2023-05-15T10:46:37.900Z,21.00
2023-05-15T10:49:05.089Z,21.20
2023-05-15T10:51:33.182Z,21.40
2023-05-15T10:54:05.843Z,20.40
2023-05-15T10:56:33.828Z,20.00
2023-05-15T10:59:08.525Z,20.60
2023-05-15T11:01:41.652Z,21.20
2023-05-15T11:04:16.160Z,21.80
2023-05-15T11:06:44.934Z,21.60
2023-05-15T11:09:27.880Z,21.20
2023-05-15T11:11:57.447Z,21.10
2023-05-15T11:14:28.705Z,21.40
2023-05-15T11:16:55.494Z,21.90
2023-05-15T11:19:28.299Z,21.60
2023-05-15T11:22:02.723Z,20.90
2023-05-15T11:24:46.745Z,21.00
2023-05-15T11:27:17.955Z,21.70
2023-05-15T11:30:22.617Z,21.90
2023-05-15T11:32:50.509Z,22.00
2023-05-15T11:35:33.027Z,22.00
2023-05-15T11:38:26.475Z,22.40
2023-05-15T11:40:58.970Z,22.00
2023-05-15T11:43:29.431Z,21.50
2023-05-15T11:46:13.580Z,20.60
2023-05-15T11:48:44.938Z,20.00
2023-05-15T11:51:23.035Z,19.60
2023-05-15T11:53:51.236Z,19.20
2023-05-15T11:56:23.496Z,19.80
2023-05-15T11:58:51.277Z,20.60
2023-05-15T12:01:18.041Z,20.70
2023-05-15T12:03:47.849Z,20.70
2023-05-15T12:06:14.926Z,20.10
2023-05-15T12:08:44.979Z,19.70
2023-05-15T12:11:12.471Z,18.90
2023-05-15T12:13:39.100Z,18.70
2023-05-15T12:16:06.112Z,18.60
2023-05-15T12:18:33.421Z,18.40
2023-05-15T12:21:00.445Z,18.30
2023-05-15T12:23:28.607Z,18.20
2023-05-15T12:25:59.317Z,18.20
2023-05-15T12:28:27.060Z,18.20
2023-05-15T12:30:54.467Z,18.10
2023-05-15T12:33:21.576Z,17.90
2023-05-15T12:36:00.822Z,17.80
2023-05-15T12:38:28.775Z,17.80
2023-05-15T12:40:55.467Z,17.90
2023-05-15T12:43:24.977Z,18.00
2023-05-15T12:45:56.285Z,18.00
2023-05-15T12:48:23.142Z,17.70
2023-05-15T12:50:50.125Z,17.50
2023-05-15T12:53:17.490Z,17.50
2023-05-15T12:55:46.582Z,17.70
2023-05-15T12:58:15.388Z,18.00
2023-05-15T13:00:44.793Z,18.50
2023-05-15T13:03:13.312Z,18.90
2023-05-15T13:05:43.163Z,19.40
2023-05-15T13:08:14.493Z,20.70
2023-05-15T13:10:41.199Z,21.30
2023-05-15T13:13:07.784Z,21.60
2023-05-15T13:15:40.329Z,21.60
2023-05-15T13:18:15.398Z,21.40
2023-05-15T13:20:51.593Z,20.60
2023-05-15T13:23:20.868Z,20.50
2023-05-15T13:25:47.740Z,21.00
2023-05-15T13:28:14.651Z,20.80
2023-05-15T13:30:42.400Z,20.90
2023-05-15T13:33:12.257Z,21.50
2023-05-15T13:35:39.948Z,22.30
2023-05-15T13:38:09.464Z,22.20
2023-05-15T13:40:38.054Z,22.50
2023-05-15T13:43:06.403Z,22.80
2023-05-15T13:45:33.066Z,22.10
2023-05-15T13:47:59.908Z,22.10
2023-05-15T13:50:26.885Z,21.60
2023-05-15T13:52:54.452Z,21.50
2023-05-15T13:55:22.932Z,21.60
2023-05-15T13:57:49.984Z,21.40
2023-05-15T14:00:17.216Z,21.30
2023-05-15T14:02:44.146Z,21.20
2023-05-15T14:05:12.582Z,20.70
2023-05-15T14:07:39.862Z,20.60
2023-05-15T14:10:07.482Z,20.80
2023-05-15T14:12:34.269Z,20.80
2023-05-15T14:15:01.099Z,21.30
2023-05-15T14:17:28.455Z,21.20
2023-05-15T14:19:55.270Z,21.20
2023-05-15T14:22:24.695Z,21.40
2023-05-15T14:24:52.597Z,21.80
2023-05-15T14:27:19.448Z,21.40
2023-05-15T14:29:46.155Z,21.90
2023-05-15T14:32:12.890Z,21.60
2023-05-15T14:34:39.627Z,21.20
2023-05-15T14:37:06.472Z,20.70
2023-05-15T14:39:33.075Z,20.10
2023-05-15T14:41:59.728Z,20.10
2023-05-15T14:44:26.319Z,20.40
2023-05-15T14:47:07.585Z,20.40
2023-05-15T14:49:35.086Z,21.40
2023-05-15T14:52:02.189Z,21.40
2023-05-15T14:54:29.132Z,21.90
2023-05-15T14:56:57.445Z,22.20
2023-05-15T14:59:25.294Z,21.50
2023-05-15T15:01:51.959Z,20.80
2023-05-15T15:04:18.692Z,20.70
2023-05-15T15:06:47.253Z,20.00
2023-05-15T15:09:13.930Z,19.50
2023-05-15T15:11:40.508Z,20.10
2023-05-15T15:14:07.149Z,20.30
2023-05-15T15:16:33.930Z,20.40
2023-05-15T15:19:00.732Z,20.10
2023-05-15T15:21:27.421Z,19.70
2023-05-15T15:23:55.086Z,19.30
2023-05-15T15:26:21.731Z,19.10
2023-05-15T15:28:48.411Z,19.10
2023-05-15T15:31:15.625Z,19.30
2023-05-15T15:33:42.315Z,19.30
2023-05-15T15:36:09.064Z,19.30
2023-05-15T15:38:35.932Z,19.10
2023-05-15T15:41:03.458Z,19.10
2023-05-15T15:43:30.162Z,18.90
2023-05-15T15:45:56.797Z,19.20
2023-05-15T15:48:23.453Z,19.80
2023-05-15T15:50:51.980Z,19.90
2023-05-15T15:53:18.665Z,19.90
2023-05-15T15:55:47.036Z,19.70
2023-05-15T15:58:14.511Z,19.60
2023-05-15T16:00:41.420Z,19.50
2023-05-15T16:03:08.212Z,19.00
2023-05-15T16:05:34.987Z,18.90
2023-05-15T16:08:01.678Z,18.80
2023-05-15T16:10:28.437Z,18.70
2023-05-15T16:12:55.358Z,18.50
2023-05-15T16:15:24.044Z,18.40
2023-05-15T16:17:54.967Z,18.40
2023-05-15T16:20:22.689Z,18.30
2023-05-15T16:22:50.064Z,18.20
2023-05-15T16:25:16.821Z,18.10
2023-05-15T16:27:43.514Z,18.20
2023-05-15T16:30:11.495Z,18.30
2023-05-15T16:32:38.278Z,18.30
2023-05-15T16:35:05.421Z,18.30
2023-05-15T16:37:32.511Z,18.30
2023-05-15T16:39:59.185Z,18.30
2023-05-15T16:42:25.969Z,18.20
2023-05-15T16:44:52.608Z,18.20
2023-05-15T16:47:19.231Z,18.20
2023-05-15T16:49:47.622Z,18.20
2023-05-15T16:52:15.851Z,18.20
2023-05-15T16:54:42.505Z,18.20
2023-05-15T16:57:09.242Z,18.60
2023-05-15T16:59:35.885Z,18.90
2023-05-15T17:02:02.601Z,18.70
2023-05-15T17:04:32.887Z,18.40
2023-05-15T17:06:59.977Z,18.40
2023-05-15T17:09:26.727Z,18.60
2023-05-15T17:11:53.340Z,18.90
2023-05-15T17:14:20.091Z,19.40
2023-05-15T17:16:47.059Z,19.70
2023-05-15T17:19:14.130Z,19.50
2023-05-15T17:21:40.889Z,19.20
2023-05-15T17:24:07.667Z,18.90
2023-05-15T17:26:34.354Z,18.60
2023-05-15T17:29:01.047Z,18.40
2023-05-15T17:31:29.268Z,18.20
2023-05-15T17:33:56.044Z,17.90
2023-05-15T17:36:52.082Z,17.60
2023-05-15T17:39:18.685Z,17.40
2023-05-15T17:41:46.661Z,17.30
2023-05-15T17:44:13.391Z,17.50
2023-05-15T17:46:40.009Z,17.80
2023-05-15T17:49:06.579Z,18.00
2023-05-15T17:51:33.237Z,18.10
2023-05-15T17:53:59.831Z,18.00
2023-05-15T17:56:27.310Z,18.10
2023-05-15T17:58:54.266Z,18.10
2023-05-15T18:01:21.932Z,18.10
2023-05-15T18:03:48.596Z,17.90
2023-05-15T18:06:15.404Z,17.80
2023-05-15T18:08:44.282Z,17.40
2023-05-15T18:11:21.410Z,17.20
2023-05-15T18:13:48.857Z,17.10
2023-05-15T18:16:15.549Z,16.90
2023-05-15T18:18:42.474Z,16.70
2023-05-15T18:21:09.122Z,16.50
2023-05-15T18:23:35.776Z,16.30
2023-05-15T18:26:02.334Z,16.20
2023-05-15T18:28:30.553Z,16.10
2023-05-15T18:30:58.566Z,15.90
2023-05-15T18:33:25.453Z,15.90
2023-05-15T18:35:52.843Z,15.70
2023-05-15T18:38:19.572Z,15.60
2023-05-15T18:40:46.844Z,15.40
2023-05-15T18:43:13.628Z,15.30
2023-05-15T18:45:40.590Z,15.20
2023-05-15T18:48:07.378Z,15.10
2023-05-15T18:50:35.391Z,15.00
2023-05-15T18:53:02.376Z,14.90
2023-05-15T18:55:30.014Z,14.90
2023-05-15T18:57:56.747Z,14.80
2023-05-15T19:00:37.110Z,14.80
2023-05-15T19:03:05.470Z,14.80
2023-05-15T19:05:33.763Z,14.70
2023-05-15T19:08:00.565Z,14.60
2023-05-15T19:10:29.149Z,14.50
2023-05-15T19:12:56.329Z,14.50
2023-05-15T19:15:23.157Z,14.40
2023-05-15T19:17:49.937Z,14.40
2023-05-15T19:20:16.716Z,14.40
2023-05-15T19:22:43.303Z,14.40
2023-05-15T19:25:11.553Z,14.30
2023-05-15T19:27:38.143Z,14.30
2023-05-15T19:30:06.935Z,14.20
2023-05-15T19:32:34.278Z,14.20
2023-05-15T19:35:01.041Z,14.10
2023-05-15T19:37:27.686Z,14.10
2023-05-15T19:39:54.361Z,13.90
2023-05-15T19:42:20.960Z,13.90
2023-05-15T19:44:47.592Z,13.70
2023-05-15T19:47:14.206Z,13.60
2023-05-15T19:49:40.869Z,13.50
2023-05-15T19:52:07.653Z,13.40
2023-05-15T19:54:34.316Z,13.30
2023-05-15T19:57:02.892Z,13.20
2023-05-15T19:59:29.881Z,13.10
2023-05-15T20:01:56.735Z,13.00
2023-05-15T20:04:23.545Z,12.80
2023-05-15T20:06:50.238Z,12.80
2023-05-15T20:09:16.887Z,12.60
2023-05-15T20:11:43.754Z,12.50
2023-05-15T20:14:10.399Z,12.40
2023-05-15T20:16:37.182Z,12.40
2023-05-15T20:19:03.974Z,12.40
2023-05-15T20:21:31.979Z,12.40
2023-05-15T20:23:58.664Z,12.30
2023-05-15T20:26:25.338Z,12.20
2023-05-15T20:28:52.136Z,12.00
2023-05-15T20:31:19.365Z,12.00
2023-05-15T20:33:46.039Z,11.80
2023-05-15T20:36:12.746Z,11.80
2023-05-15T20:38:39.482Z,11.70
2023-05-15T20:41:06.107Z,11.60
2023-05-15T20:43:32.701Z,11.50
2023-05-15T20:45:59.370Z,11.40
2023-05-15T20:48:26.045Z,11.40
2023-05-15T20:50:53.394Z,11.40
2023-05-15T20:53:20.042Z,11.40
2023-05-15T20:55:46.742Z,11.30
2023-05-15T20:58:13.346Z,11.30
2023-05-15T21:00:40.003Z,11.30
2023-05-15T21:03:06.831Z,11.30
2023-05-15T21:05:33.560Z,11.30
2023-05-15T21:08:00.225Z,11.30
2023-05-15T21:10:27.106Z,11.30
2023-05-15T21:12:54.013Z,11.30
2023-05-15T21:15:20.908Z,11.30
2023-05-15T21:17:47.599Z,11.30
2023-05-15T21:20:14.907Z,11.30
2023-05-15T21:22:41.673Z,11.20
2023-05-15T21:25:08.760Z,11.20
2023-05-15T21:27:35.446Z,11.20
2023-05-15T21:30:02.102Z,11.10
2023-05-15T21:32:28.848Z,11.10
2023-05-15T21:34:55.476Z,11.10
2023-05-15T21:37:22.138Z,11.10
2023-05-15T21:39:48.854Z,11.10
2023-05-15T21:42:15.534Z,11.10
2023-05-15T21:44:42.149Z,11.10
2023-05-15T21:47:08.779Z,11.10
2023-05-15T21:49:35.392Z,11.10
2023-05-15T21:52:02.084Z,11.10
2023-05-15T21:54:29.076Z,11.10
2023-05-15T21:56:55.695Z,11.10
2023-05-15T21:59:22.263Z,11.10
2023-05-15T22:01:48.987Z,11.10
2023-05-15T22:04:15.981Z,11.00
2023-05-15T22:06:43.400Z,11.00
2023-05-15T22:09:09.991Z,11.00
2023-05-15T22:11:36.599Z,11.00
2023-05-15T22:14:03.292Z,11.00
2023-05-15T22:16:30.048Z,10.90
2023-05-15T22:18:56.772Z,11.00
2023-05-15T22:21:23.438Z,10.90
2023-05-15T22:23:50.037Z,10.90
2023-05-15T22:26:18.074Z,10.90
2023-05-15T22:28:47.386Z,10.90
2023-05-15T22:31:14.238Z,10.90
2023-05-15T22:33:40.847Z,10.90
2023-05-15T22:36:07.590Z,10.90
2023-05-15T22:38:34.215Z,10.90
2023-05-15T22:41:00.811Z,10.80
2023-05-15T22:43:27.463Z,10.80
2023-05-15T22:45:54.154Z,10.80
2023-05-15T22:48:20.903Z,10.70
2023-05-15T22:51:12.420Z,10.70
2023-05-15T22:53:39.055Z,10.80
2023-05-15T22:56:06.227Z,10.70
2023-05-15T22:58:32.814Z,10.70
2023-05-15T23:00:59.753Z,10.70
2023-05-15T23:03:27.175Z,10.70
2023-05-15T23:05:54.221Z,10.70
2023-05-15T23:08:21.053Z,10.70
2023-05-15T23:10:47.822Z,10.70
2023-05-15T23:13:14.394Z,10.60
2023-05-15T23:15:41.183Z,10.50
2023-05-15T23:18:08.561Z,10.50
2023-05-15T23:20:35.326Z,10.50
2023-05-15T23:23:01.906Z,10.40
2023-05-15T23:25:28.512Z,10.40
2023-05-15T23:27:55.443Z,10.40
2023-05-15T23:30:22.281Z,10.30
2023-05-15T23:32:50.231Z,10.30
2023-05-15T23:35:16.909Z,10.30
2023-05-15T23:37:43.520Z,10.30
2023-05-15T23:40:10.834Z,10.20
2023-05-15T23:42:37.464Z,10.20
2023-05-15T23:45:04.368Z,10.20
2023-05-15T23:47:30.977Z,10.20
2023-05-15T23:49:57.652Z,10.30
2023-05-15T23:52:24.244Z,10.20
2023-05-15T23:54:50.931Z,10.20
2023-05-15T23:57:17.534Z,10.20
2023-05-15T23:59:44.125Z,10.20
